Time;durP1;ratioP1;P1;durP2;ratioP2;P2;SDS_P1;SDS_P2;PMS_P1;PMS_P2;Temp;Humidity;BMP_temperature;BMP_pressure;BME280_temperature;BME280_humidity;BME280_pressure;Samples;Min_cycle;Max_cycle;Signal;HPM_P1;HPM_P2
2023/07/23 00:01:09;;;;;;;15.13;13.07;;;22.20;37.60;;;;;;5075128;28;20188;-52
2023/07/23 00:03:34;;;;;;;27.77;23.67;;;22.20;38.40;;;;;;5075707;28;20227;-52
2023/07/23 00:06:00;;;;;;;44.07;37.43;;;22.20;37.90;;;;;;5075387;28;20641;-54
2023/07/23 00:08:26;;;;;;;50.27;44.40;;;22.20;38.30;;;;;;5075524;28;20525;-51
2023/07/23 00:10:58;;;;;;;54.87;43.53;;;22.10;38.40;;;;;;5074954;28;20231;-52
2023/07/23 00:13:24;;;;;;;32.73;29.23;;;22.20;38.40;;;;;;5075120;28;20235;-53
2023/07/23 00:15:50;;;;;;;23.93;21.00;;;22.10;38.10;;;;;;5075158;28;20415;-51
2023/07/23 00:18:16;;;;;;;19.50;17.50;;;22.10;38.10;;;;;;5075329;28;20406;-51
2023/07/23 00:20:42;;;;;;;16.20;14.50;;;22.10;38.10;;;;;;5074778;28;20467;-53
2023/07/23 00:23:09;;;;;;;13.20;10.67;;;22.10;39.10;;;;;;5075059;28;20668;-52
2023/07/23 00:25:34;;;;;;;11.77;10.53;;;22.10;38.40;;;;;;5075116;28;20461;-50
2023/07/23 00:28:00;;;;;;;13.20;11.80;;;22.10;38.30;;;;;;5075218;28;20774;-53
2023/07/23 00:30:26;;;;;;;15.30;13.00;;;22.10;38.30;;;;;;5074633;28;20284;-51
2023/07/23 00:32:52;;;;;;;24.00;13.43;;;22.10;38.70;;;;;;5075157;28;20230;-51
2023/07/23 00:35:20;;;;;;;18.40;13.30;;;22.00;38.50;;;;;;5075019;28;20689;-53
2023/07/23 00:37:46;;;;;;;18.13;12.57;;;22.00;38.60;;;;;;5074901;28;20446;-53
2023/07/23 00:40:12;;;;;;;15.90;12.67;;;22.00;38.40;;;;;;5074783;28;20860;-53
2023/07/23 00:42:37;;;;;;;14.13;10.20;;;22.00;38.80;;;;;;5074733;28;20415;-52
2023/07/23 00:45:04;;;;;;;10.87;9.70;;;22.00;38.70;;;;;;5074894;28;20494;-51
2023/07/23 00:47:29;;;;;;;12.40;9.70;;;21.90;38.60;;;;;;5074590;28;20188;-53
2023/07/23 00:49:56;;;;;;;13.37;9.40;;;22.00;38.90;;;;;;5074168;28;20462;-51
2023/07/23 00:52:22;;;;;;;10.20;9.20;;;22.00;38.90;;;;;;5074545;28;20879;-51
2023/07/23 00:54:47;;;;;;;11.33;9.20;;;22.00;38.50;;;;;;5074486;28;20418;-54
2023/07/23 00:57:13;;;;;;;8.60;7.87;;;22.00;38.50;;;;;;5073676;28;20431;-51
2023/07/23 00:59:39;;;;;;;8.10;7.07;;;21.90;38.40;;;;;;5074242;28;20407;-51
2023/07/23 01:02:05;;;;;;;8.30;6.53;;;21.90;38.30;;;;;;5074312;28;20446;-52
2023/07/23 01:04:32;;;;;;;7.97;6.83;;;21.90;38.00;;;;;;5074373;28;20445;-52
2023/07/23 01:07:03;;;;;;;7.50;6.80;;;21.90;38.30;;;;;;5074344;28;20406;-53
2023/07/23 01:09:30;;;;;;;8.23;7.43;;;21.90;38.70;;;;;;5074119;28;20495;-53
2023/07/23 01:11:56;;;;;;;9.17;6.67;;;21.80;38.80;;;;;;5074157;28;20519;-51
2023/07/23 01:14:22;;;;;;;9.17;6.57;;;21.90;38.90;;;;;;5074128;28;20524;-53
2023/07/23 01:16:48;;;;;;;8.00;7.00;;;21.80;38.60;;;;;;5074077;28;20921;-51
2023/07/23 01:19:15;;;;;;;9.05;6.60;;;21.80;38.40;;;;;;5073803;28;20407;-51
2023/07/23 01:21:41;;;;;;;7.60;6.60;;;21.80;38.50;;;;;;5073972;28;20189;-53
2023/07/23 01:24:07;;;;;;;8.70;7.80;;;21.80;38.20;;;;;;5074003;28;20409;-53
2023/07/23 01:26:33;;;;;;;6.97;5.30;;;21.90;38.30;;;;;;5073855;28;20902;-50
2023/07/23 01:28:59;;;;;;;6.53;5.80;;;21.90;37.80;;;;;;5073814;28;20218;-53
2023/07/23 01:31:24;;;;;;;7.20;5.63;;;21.90;38.10;;;;;;5073726;28;20454;-53
2023/07/23 01:33:52;;;;;;;6.37;5.77;;;21.90;37.90;;;;;;5074036;28;20593;-53
2023/07/23 01:36:18;;;;;;;7.20;6.33;;;21.90;38.20;;;;;;5074005;28;20256;-53
2023/07/23 01:38:45;;;;;;;6.20;5.60;;;21.80;38.10;;;;;;5073720;28;20848;-51
2023/07/23 01:41:11;;;;;;;6.18;5.57;;;21.90;38.40;;;;;;5073248;28;20437;-53
2023/07/23 01:43:39;;;;;;;8.53;5.90;;;21.80;38.00;;;;;;5073855;28;20260;-50
2023/07/23 01:46:05;;;;;;;9.50;6.57;;;21.80;38.40;;;;;;5073421;28;20462;-53
2023/07/23 01:48:30;;;;;;;6.77;6.07;;;21.80;38.60;;;;;;5073486;28;20431;-50
2023/07/23 01:50:56;;;;;;;7.77;6.27;;;21.80;38.10;;;;;;5073179;28;20209;-52
2023/07/23 01:53:22;;;;;;;6.47;5.80;;;21.80;37.60;;;;;;5073519;28;20248;-53
2023/07/23 01:55:48;;;;;;;5.57;4.50;;;21.80;37.30;;;;;;5073276;28;20287;-52
2023/07/23 01:58:14;;;;;;;6.37;5.33;;;21.80;37.40;;;;;;5073510;28;20179;-53
2023/07/23 02:00:40;;;;;;;5.57;4.63;;;21.80;37.70;;;;;;5072917;28;20435;-53
2023/07/23 02:03:06;;;;;;;5.63;5.03;;;21.90;37.60;;;;;;5072975;28;20200;-51
2023/07/23 02:05:32;;;;;;;7.33;6.63;;;21.90;38.30;;;;;;5073372;28;20414;-53
2023/07/23 02:07:58;;;;;;;5.60;5.10;;;21.90;38.20;;;;;;5072755;28;20407;-51
2023/07/23 02:10:23;;;;;;;6.57;5.87;;;21.90;37.80;;;;;;5072154;28;20458;-50
2023/07/23 02:12:49;;;;;;;6.00;5.40;;;22.00;37.60;;;;;;5073181;28;20530;-54
2023/07/23 02:15:15;;;;;;;5.80;5.20;;;21.90;37.80;;;;;;5073031;28;20248;-50
2023/07/23 02:17:41;;;;;;;6.57;5.83;;;21.90;37.80;;;;;;5072965;28;20180;-51
2023/07/23 02:20:08;;;;;;;6.40;5.80;;;22.00;38.70;;;;;;5072657;28;20196;-54
2023/07/23 02:22:34;;;;;;;6.60;4.80;;;22.00;37.40;;;;;;5072776;28;20172;-54
2023/07/23 02:25:00;;;;;;;6.00;5.03;;;22.00;37.00;;;;;;5072665;28;20411;-51
2023/07/23 02:27:26;;;;;;;5.47;4.97;;;22.00;37.10;;;;;;5072933;28;20829;-51
2023/07/23 02:29:51;;;;;;;5.63;5.13;;;22.10;36.90;;;;;;5072314;28;20192;-54
2023/07/23 02:32:17;;;;;;;7.23;5.03;;;22.10;37.10;;;;;;5072930;28;20490;-51
2023/07/23 02:34:43;;;;;;;5.73;5.20;;;22.10;37.10;;;;;;5072686;28;20203;-53
2023/07/23 02:37:09;;;;;;;7.80;6.00;;;22.20;36.90;;;;;;5072462;28;20168;-53
2023/07/23 02:39:34;;;;;;;5.17;4.63;;;22.20;36.60;;;;;;5072298;28;20176;-50
2023/07/23 02:42:00;;;;;;;6.87;4.93;;;21.20;36.50;;;;;;5072450;28;20176;-50
2023/07/23 02:44:26;;;;;;;10.30;5.00;;;22.20;36.60;;;;;;5072519;28;20171;-53
2023/07/23 02:46:52;;;;;;;5.57;4.83;;;22.30;36.70;;;;;;5072330;28;20180;-53
2023/07/23 02:49:18;;;;;;;5.10;4.60;;;22.20;37.10;;;;;;5072074;28;20403;-51
2023/07/23 02:51:43;;;;;;;5.70;4.53;;;22.30;36.90;;;;;;5072147;28;20478;-51
2023/07/23 02:54:09;;;;;;;5.80;4.73;;;22.30;37.60;;;;;;5072291;28;20386;-53
2023/07/23 02:56:35;;;;;;;6.30;5.23;;;22.30;37.10;;;;;;5072191;28;20169;-50
2023/07/23 02:59:04;;;;;;;8.27;5.23;;;22.30;37.70;;;;;;5071005;28;20636;-53
2023/07/23 03:01:30;;;;;;;5.20;4.70;;;22.30;38.20;;;;;;5070748;28;20435;-50
2023/07/23 03:03:56;;;;;;;5.17;4.67;;;22.30;38.60;;;;;;5070971;28;20415;-53
2023/07/23 03:06:22;;;;;;;8.70;5.77;;;22.30;38.70;;;;;;5072096;28;20434;-53
2023/07/23 03:08:48;;;;;;;7.03;5.00;;;22.30;38.60;;;;;;5072057;28;20415;-50
2023/07/23 03:11:14;;;;;;;5.50;5.00;;;22.30;39.10;;;;;;5072006;28;20200;-53
2023/07/23 03:13:39;;;;;;;5.37;4.90;;;22.20;39.40;;;;;;5072059;28;20664;-53
2023/07/23 03:16:05;;;;;;;5.60;5.00;;;22.30;39.10;;;;;;5070868;28;20189;-52
2023/07/23 03:18:31;;;;;;;6.50;5.60;;;22.20;39.10;;;;;;5072069;28;20648;-52
2023/07/23 03:20:57;;;;;;;5.50;4.90;;;22.30;39.50;;;;;;5071433;28;20219;-51
2023/07/23 03:23:23;;;;;;;7.97;5.13;;;22.30;39.00;;;;;;5072044;28;20262;-53
2023/07/23 03:25:48;;;;;;;6.40;5.27;;;22.40;38.70;;;;;;5071962;28;20696;-51
2023/07/23 03:28:15;;;;;;;6.93;5.30;;;22.40;38.60;;;;;;5071818;28;20418;-51
2023/07/23 03:30:40;;;;;;;5.80;4.77;;;22.40;37.90;;;;;;5071647;28;20216;-54
2023/07/23 03:33:06;;;;;;;5.83;4.43;;;22.40;37.90;;;;;;5071863;28;20766;-53
2023/07/23 03:35:32;;;;;;;5.07;4.33;;;22.40;38.40;;;;;;5072096;28;20688;-52
2023/07/23 03:37:58;;;;;;;6.20;4.60;;;22.50;38.40;;;;;;5072071;28;20366;-51
2023/07/23 03:40:23;;;;;;;6.30;4.83;;;22.50;38.60;;;;;;5071492;28;20200;-54
2023/07/23 03:42:49;;;;;;;6.77;5.50;;;22.50;38.40;;;;;;5071770;28;20207;-51
2023/07/23 03:45:15;;;;;;;6.07;5.57;;;22.50;37.70;;;;;;5071762;28;20164;-54
2023/07/23 03:47:41;;;;;;;6.23;4.70;;;22.50;38.20;;;;;;5071771;28;20177;-54
2023/07/23 03:50:07;;;;;;;6.80;4.50;;;22.50;38.10;;;;;;5071526;28;20238;-51
2023/07/23 03:52:32;;;;;;;5.00;4.37;;;22.50;38.60;;;;;;5071682;28;20617;-52
2023/07/23 03:54:58;;;;;;;6.37;5.40;;;22.50;38.60;;;;;;5071666;28;20410;-53
2023/07/23 03:57:24;;;;;;;6.07;5.47;;;22.50;38.20;;;;;;5071671;28;20169;-50
2023/07/23 03:59:50;;;;;;;6.90;4.53;;;22.60;38.20;;;;;;5071289;28;20181;-53
2023/07/23 04:02:16;;;;;;;5.73;4.70;;;22.60;37.80;;;;;;5071745;28;20637;-53
2023/07/23 04:04:42;;;;;;;7.07;5.13;;;22.60;37.40;;;;;;5071614;28;20410;-53
2023/07/23 04:07:08;;;;;;;5.30;4.70;;;22.60;37.60;;;;;;5071741;28;20581;-52
2023/07/23 04:09:34;;;;;;;7.73;5.60;;;22.60;38.10;;;;;;5071246;28;20411;-52
2023/07/23 04:12:01;;;;;;;8.10;4.70;;;22.70;38.40;;;;;;5071446;28;20423;-52
2023/07/23 04:14:27;;;;;;;7.60;5.70;;;22.70;37.80;;;;;;5071312;28;20814;-51
2023/07/23 04:16:55;;;;;;;5.53;4.60;;;22.60;37.70;;;;;;5071465;28;20411;-51
2023/07/23 04:19:22;;;;;;;6.63;5.27;;;22.70;38.30;;;;;;5071107;28;20966;-51
2023/07/23 04:21:47;;;;;;;4.53;4.10;;;22.70;38.40;;;;;;5071427;28;20469;-51
2023/07/23 04:24:13;;;;;;;6.47;5.60;;;22.70;38.60;;;;;;5071372;28;20443;-53
2023/07/23 04:26:39;;;;;;;5.10;4.50;;;22.80;39.50;;;;;;5071372;28;20176;-51
2023/07/23 04:29:05;;;;;;;4.33;3.93;;;22.80;39.60;;;;;;5071263;28;20414;-54
2023/07/23 04:31:31;;;;;;;5.20;4.27;;;22.80;38.90;;;;;;5071251;28;20458;-51
2023/07/23 04:33:59;;;;;;;5.90;5.30;;;22.80;38.10;;;;;;5074844;28;20441;-54
2023/07/23 04:36:24;;;;;;;7.50;4.47;;;22.80;38.40;;;;;;5074860;28;20410;-52
2023/07/23 04:38:50;;;;;;;6.00;5.10;;;22.90;38.90;;;;;;5074794;28;20406;-53
2023/07/23 04:41:16;;;;;;;10.90;5.47;;;22.90;39.10;;;;;;5074849;28;20256;-54
2023/07/23 04:43:42;;;;;;;6.70;5.60;;;22.90;38.90;;;;;;5074810;28;20181;-51
2023/07/23 04:46:08;;;;;;;6.00;5.03;;;22.90;39.50;;;;;;5074788;28;20418;-53
2023/07/23 04:48:36;;;;;;;6.70;5.17;;;22.90;39.40;;;;;;5074861;28;20526;-52
2023/07/23 04:51:05;;;;;;;5.63;5.10;;;22.90;38.70;;;;;;5074224;28;20878;-52
2023/07/23 04:53:31;;;;;;;5.60;4.43;;;23.00;38.50;;;;;;5074866;28;20415;-54
2023/07/23 04:55:58;;;;;;;4.60;4.20;;;23.00;38.30;;;;;;5074799;28;20406;-54
2023/07/23 04:58:25;;;;;;;5.30;4.73;;;23.10;38.40;;;;;;5074480;28;20474;-52
2023/07/23 05:00:52;;;;;;;4.90;4.40;;;23.20;38.40;;;;;;5074427;28;20480;-52
2023/07/23 05:03:18;;;;;;;6.73;4.60;;;23.20;38.30;;;;;;5074417;28;20413;-54
2023/07/23 05:05:52;;;;;;;5.47;4.67;;;23.30;38.50;;;;;;5074379;28;20411;-53
2023/07/23 05:08:18;;;;;;;5.90;4.00;;;23.40;38.40;;;;;;5074313;28;20392;-51
2023/07/23 05:10:44;;;;;;;6.00;4.30;;;23.40;38.30;;;;;;5073932;28;20541;-56
2023/07/23 05:13:12;;;;;;;5.60;4.13;;;23.50;37.80;;;;;;5074090;28;20423;-53
2023/07/23 05:15:37;;;;;;;5.77;4.73;;;23.60;37.40;;;;;;5074401;28;20413;-51
2023/07/23 05:18:03;;;;;;;5.03;3.80;;;23.70;37.30;;;;;;5074097;28;20411;-53
2023/07/23 05:20:29;;;;;;;5.63;4.50;;;23.80;37.20;;;;;;5073891;28;20196;-52
2023/07/23 05:22:55;;;;;;;5.03;4.53;;;23.90;37.80;;;;;;5074024;28;20803;-51
2023/07/23 05:25:21;;;;;;;7.73;4.27;;;24.00;37.00;;;;;;5074026;28;20184;-54
2023/07/23 05:27:48;;;;;;;4.77;4.03;;;24.10;37.10;;;;;;5073847;28;20411;-54
2023/07/23 05:30:14;;;;;;;4.80;4.10;;;24.20;37.00;;;;;;5073416;28;20515;-51
2023/07/23 05:32:40;;;;;;;8.83;3.90;;;24.30;36.70;;;;;;5074097;28;20490;-54
2023/07/23 05:35:06;;;;;;;6.00;4.43;;;24.40;36.30;;;;;;5073946;28;20879;-51
2023/07/23 05:37:32;;;;;;;5.03;4.53;;;24.40;36.30;;;;;;5073732;28;20165;-52
2023/07/23 05:39:58;;;;;;;6.57;4.00;;;24.50;36.50;;;;;;5073581;28;20449;-51
2023/07/23 05:42:23;;;;;;;4.60;4.17;;;24.50;36.90;;;;;;5073374;28;20675;-52
2023/07/23 05:44:50;;;;;;;6.23;4.10;;;24.60;36.40;;;;;;5073756;28;20180;-53
2023/07/23 05:47:15;;;;;;;6.27;3.77;;;24.60;36.70;;;;;;5073543;28;20180;-52
2023/07/23 05:49:41;;;;;;;6.57;3.60;;;24.70;36.00;;;;;;5073158;28;20454;-50
2023/07/23 05:52:07;;;;;;;4.00;3.60;;;24.70;35.70;;;;;;5073735;28;20199;-54
2023/07/23 05:54:33;;;;;;;4.93;4.20;;;24.70;35.40;;;;;;5073407;28;20168;-54
2023/07/23 05:56:59;;;;;;;5.03;3.43;;;24.70;35.60;;;;;;5073300;28;20979;-52
2023/07/23 05:59:25;;;;;;;5.13;4.43;;;24.80;35.90;;;;;;5073367;28;20210;-54
2023/07/23 06:01:52;;;;;;;4.47;4.03;;;24.90;36.70;;;;;;5073401;28;20517;-51
2023/07/23 06:04:17;;;;;;;5.07;4.20;;;25.00;36.00;;;;;;5073138;28;20484;-52
2023/07/23 06:06:43;;;;;;;6.30;4.40;;;25.10;35.50;;;;;;5073082;28;20403;-54
2023/07/23 06:09:09;;;;;;;5.07;4.10;;;25.20;35.60;;;;;;5073061;28;20176;-51
2023/07/23 06:11:35;;;;;;;5.57;4.07;;;25.30;35.30;;;;;;5072766;28;20539;-51
2023/07/23 06:14:02;;;;;;;5.33;3.80;;;25.40;35.00;;;;;;5072793;28;20923;-53
2023/07/23 06:16:29;;;;;;;4.60;4.17;;;25.40;35.10;;;;;;5072875;28;20660;-52
2023/07/23 06:18:55;;;;;;;4.83;4.33;;;25.40;35.90;;;;;;5072984;28;20395;-50
2023/07/23 06:21:21;;;;;;;6.93;4.40;;;25.40;36.10;;;;;;5072713;28;20454;-55
2023/07/23 06:23:46;;;;;;;10.23;4.87;;;25.50;35.70;;;;;;5072830;28;20229;-55
2023/07/23 06:26:13;;;;;;;5.53;4.30;;;25.50;35.40;;;;;;5072959;28;20181;-52
2023/07/23 06:28:38;;;;;;;4.77;4.30;;;25.60;35.20;;;;;;5072730;28;20251;-52
2023/07/23 06:31:04;;;;;;;5.03;3.83;;;25.60;35.40;;;;;;5072340;28;20929;-51
2023/07/23 06:33:30;;;;;;;5.87;4.17;;;25.60;35.50;;;;;;5072638;28;20591;-51
2023/07/23 06:35:56;;;;;;;6.10;4.17;;;25.70;34.40;;;;;;5072776;28;20632;-52
2023/07/23 06:38:22;;;;;;;4.43;3.90;;;25.80;34.90;;;;;;5072501;28;20172;-55
2023/07/23 06:40:49;;;;;;;4.70;3.60;;;25.80;34.40;;;;;;5072170;28;20192;-52
2023/07/23 06:43:16;;;;;;;3.93;3.20;;;25.80;35.00;;;;;;5072404;28;20173;-52
2023/07/23 06:45:43;;;;;;;5.50;3.03;;;25.80;35.20;;;;;;5072413;28;20933;-52
2023/07/23 06:48:10;;;;;;;7.70;4.60;;;25.90;35.10;;;;;;5072423;28;20415;-54
2023/07/23 06:50:36;;;;;;;5.10;4.20;;;25.90;34.90;;;;;;5072108;28;20473;-51
2023/07/23 06:53:02;;;;;;;6.63;4.50;;;26.00;35.50;;;;;;5072324;28;20402;-51
2023/07/23 06:55:28;;;;;;;5.47;4.13;;;26.10;34.90;;;;;;5071704;28;20414;-54
2023/07/23 06:57:54;;;;;;;5.27;3.90;;;26.10;35.40;;;;;;5072420;28;20179;-54
2023/07/23 07:00:20;;;;;;;5.73;3.73;;;26.20;35.60;;;;;;5071994;28;20434;-51
2023/07/23 07:02:45;;;;;;;4.97;4.33;;;26.20;35.30;;;;;;5072270;28;20444;-52
2023/07/23 07:05:12;;;;;;;5.23;4.10;;;26.30;35.10;;;;;;5072413;28;20419;-53
2023/07/23 07:07:38;;;;;;;5.50;4.10;;;26.30;35.00;;;;;;5072257;28;20249;-51
2023/07/23 07:10:07;;;;;;;4.83;3.93;;;26.30;35.20;;;;;;5071724;28;20463;-53
2023/07/23 07:12:33;;;;;;;3.90;3.27;;;26.40;35.30;;;;;;5072054;28;20899;-53
2023/07/23 07:14:58;;;;;;;5.70;4.13;;;26.40;35.60;;;;;;5071926;28;20529;-51
2023/07/23 07:17:24;;;;;;;5.77;4.87;;;26.50;35.30;;;;;;5072085;28;20172;-52
2023/07/23 07:19:50;;;;;;;5.80;4.70;;;26.60;35.40;;;;;;5072051;28;20263;-54
2023/07/23 07:22:17;;;;;;;6.00;4.47;;;26.70;35.30;;;;;;5072033;28;20461;-51
2023/07/23 07:24:43;;;;;;;5.00;3.27;;;26.70;35.20;;;;;;5071936;28;20193;-53
2023/07/23 07:27:09;;;;;;;4.70;4.27;;;26.80;35.20;;;;;;5071872;28;20406;-54
2023/07/23 07:29:39;;;;;;;9.37;4.07;;;26.80;34.20;;;;;;5071558;28;20925;-51
2023/07/23 07:32:06;;;;;;;7.40;4.77;;;26.90;33.90;;;;;;5072017;28;20399;-52
2023/07/23 07:34:32;;;;;;;6.10;4.57;;;26.90;33.90;;;;;;5071838;28;20403;-53
2023/07/23 07:36:58;;;;;;;6.87;3.30;;;27.00;35.30;;;;;;5071826;28;20406;-51
2023/07/23 07:39:24;;;;;;;6.20;3.90;;;27.10;35.10;;;;;;5071429;28;20213;-51
2023/07/23 07:41:49;;;;;;;3.90;3.43;;;27.20;34.30;;;;;;5071972;28;20192;-53
2023/07/23 07:44:15;;;;;;;4.40;3.90;;;27.30;34.00;;;;;;5071839;28;20672;-52
2023/07/23 07:46:41;;;;;;;6.17;4.00;;;27.30;33.00;;;;;;5071737;28;20231;-52
2023/07/23 07:49:07;;;;;;;6.00;3.77;;;27.40;34.00;;;;;;5071889;28;20171;-54
2023/07/23 07:51:32;;;;;;;4.23;3.60;;;27.40;33.70;;;;;;5071469;28;20212;-53
2023/07/23 07:53:58;;;;;;;5.20;4.13;;;27.50;33.10;;;;;;5071762;28;20169;-52
2023/07/23 07:56:24;;;;;;;5.20;3.73;;;27.60;31.10;;;;;;5070375;28;20637;-54
2023/07/23 07:58:50;;;;;;;7.60;4.00;;;27.60;30.60;;;;;;5070333;28;20264;-51
2023/07/23 08:01:16;;;;;;;4.00;3.60;;;27.80;30.00;;;;;;5071411;28;20422;-50
2023/07/23 08:03:42;;;;;;;5.63;4.20;;;27.80;31.10;;;;;;5071533;28;20497;-52
2023/07/23 08:06:10;;;;;;;5.90;3.77;;;28.00;32.50;;;;;;5072962;28;20494;-53
2023/07/23 08:08:37;;;;;;;7.63;4.33;;;28.10;34.00;;;;;;5075283;28;20402;-53
2023/07/23 08:11:06;;;;;;;4.40;3.33;;;28.20;34.60;;;;;;5075316;28;20454;-52
2023/07/23 08:13:34;;;;;;;5.07;4.10;;;28.40;30.00;;;;;;5075396;28;20450;-52
2023/07/23 08:16:01;;;;;;;4.70;3.80;;;28.50;30.30;;;;;;5075388;28;20415;-54
2023/07/23 08:18:27;;;;;;;4.33;3.27;;;28.60;28.10;;;;;;5075358;28;20413;-53
2023/07/23 08:20:57;;;;;;;6.77;4.10;;;28.60;27.50;;;;;;5074890;28;20864;-51
2023/07/23 08:23:26;;;;;;;10.13;4.00;;;28.70;27.30;;;;;;5075329;28;20415;-51
2023/07/23 08:25:56;;;;;;;4.50;3.67;;;28.80;27.10;;;;;;5075191;28;20417;-52
2023/07/23 08:28:25;;;;;;;6.30;4.43;;;28.90;26.90;;;;;;5075178;28;20434;-52
2023/07/23 08:30:51;;;;;;;5.37;4.60;;;29.00;27.90;;;;;;5074733;28;20458;-54
2023/07/23 08:33:18;;;;;;;7.13;4.80;;;29.20;27.40;;;;;;5074879;28;20403;-52
2023/07/23 08:35:44;;;;;;;4.93;4.27;;;29.30;27.70;;;;;;5075049;28;20411;-51
2023/07/23 08:38:10;;;;;;;5.40;3.80;;;29.40;27.40;;;;;;5074761;28;20426;-54
2023/07/23 08:40:45;;;;;;;8.13;4.23;;;29.60;28.00;;;;;;5074534;28;20426;-51
2023/07/23 08:43:29;;;;;;;5.97;4.00;;;29.70;26.10;;;;;;5075022;28;20402;-51
2023/07/23 08:46:25;;;;;;;5.60;3.80;;;29.80;26.00;;;;;;5074686;28;20418;-54
2023/07/23 08:49:03;;;;;;;4.07;3.67;;;30.00;26.50;;;;;;5073954;28;20418;-50
2023/07/23 08:51:43;;;;;;;4.47;4.07;;;30.10;25.90;;;;;;5074412;28;20454;-53
2023/07/23 08:54:10;;;;;;;6.33;4.03;;;30.20;27.40;;;;;;5074652;28;20395;-52
2023/07/23 08:56:38;;;;;;;5.23;3.97;;;30.30;26.20;;;;;;5074737;28;20406;-51
2023/07/23 08:59:05;;;;;;;5.40;4.30;;;30.40;24.80;;;;;;5074314;28;21036;-53
2023/07/23 09:01:34;;;;;;;4.50;3.00;;;30.40;24.60;;;;;;5074278;28;20506;-51
2023/07/23 09:04:00;;;;;;;5.07;3.37;;;30.40;25.10;;;;;;5074294;28;20469;-53
2023/07/23 09:06:30;;;;;;;4.20;3.50;;;30.40;24.90;;;;;;5074204;28;20402;-53
2023/07/23 09:09:09;;;;;;;3.47;3.00;;;30.40;24.10;;;;;;5074194;28;20514;-51
2023/07/23 09:11:36;;;;;;;5.43;3.13;;;30.50;23.70;;;;;;5074053;28;20912;-50
2023/07/23 09:14:07;;;;;;;4.97;3.20;;;30.40;23.80;;;;;;5074108;28;20429;-50
2023/07/23 09:16:39;;;;;;;5.50;3.43;;;30.40;25.60;;;;;;5074223;28;20504;-53
2023/07/23 09:19:05;;;;;;;4.87;2.93;;;30.50;24.50;;;;;;5073433;28;20951;-53
2023/07/23 09:21:31;;;;;;;15.33;3.43;;;30.60;25.30;;;;;;5073724;28;20939;-52
2023/07/23 09:23:58;;;;;;;3.80;3.20;;;30.60;22.20;;;;;;5074137;28;20409;-54
2023/07/23 09:26:27;;;;;;;6.43;3.43;;;30.70;23.00;;;;;;5074318;28;20183;-51
2023/07/23 09:28:54;;;;;;;3.60;3.17;;;30.70;22.60;;;;;;5073941;28;20495;-53
2023/07/23 09:31:29;;;;;;;4.50;3.30;;;30.80;23.20;;;;;;5073919;28;20482;-51
2023/07/23 09:33:57;;;;;;;4.33;2.90;;;30.90;23.80;;;;;;5073781;28;20410;-51
2023/07/23 09:36:26;;;;;;;3.77;3.37;;;31.10;24.00;;;;;;5073724;28;20403;-51
2023/07/23 09:38:59;;;;;;;4.10;3.63;;;31.20;23.60;;;;;;5073704;28;20423;-51
2023/07/23 09:41:31;;;;;;;4.87;3.30;;;31.30;24.00;;;;;;5073577;28;20427;-54
2023/07/23 09:44:10;;;;;;;6.23;4.67;;;31.30;23.20;;;;;;5073705;28;20399;-51
2023/07/23 09:46:38;;;;;;;7.77;4.00;;;31.30;23.40;;;;;;5073547;28;20402;-53
2023/07/23 09:49:04;;;;;;;6.63;3.67;;;31.40;22.90;;;;;;5073306;28;20403;-51
2023/07/23 09:51:33;;;;;;;5.70;3.67;;;31.50;24.30;;;;;;5073204;28;20540;-51
2023/07/23 09:54:01;;;;;;;7.10;3.53;;;31.50;24.00;;;;;;5073614;28;20415;-52
2023/07/23 09:56:27;;;;;;;5.30;3.00;;;31.50;22.00;;;;;;5073683;28;20411;-54
2023/07/23 09:58:54;;;;;;;4.70;3.20;;;31.50;22.90;;;;;;5073277;28;20477;-50
2023/07/23 10:01:20;;;;;;;2.77;2.53;;;31.50;23.10;;;;;;5073029;28;20930;-51
2023/07/23 10:03:47;;;;;;;3.37;2.50;;;31.60;22.30;;;;;;5073414;28;20418;-53
2023/07/23 10:06:26;;;;;;;5.40;3.37;;;31.70;21.30;;;;;;5073127;28;20411;-51
2023/07/23 10:08:52;;;;;;;2.73;2.47;;;31.90;20.70;;;;;;5073198;28;20924;-51
2023/07/23 10:11:19;;;;;;;4.07;3.50;;;32.00;21.90;;;;;;5073037;28;20463;-54
2023/07/23 10:13:47;;;;;;;5.00;3.20;;;32.10;20.70;;;;;;5073105;28;20252;-52
2023/07/23 10:16:23;;;;;;;3.40;2.63;;;32.30;22.10;;;;;;5072977;28;20398;-52
2023/07/23 10:18:51;;;;;;;5.63;2.90;;;32.50;21.20;;;;;;5073190;28;20390;-54
2023/07/23 10:21:20;;;;;;;8.13;3.57;;;32.60;21.80;;;;;;5072540;28;20462;-51
2023/07/23 10:23:56;;;;;;;4.93;3.60;;;32.70;20.00;;;;;;5072929;28;20414;-53
2023/07/23 10:26:38;;;;;;;3.30;3.00;;;32.70;20.80;;;;;;5073070;28;21094;-51
2023/07/23 10:29:06;;;;;;;4.40;3.63;;;32.80;21.20;;;;;;5072302;28;20409;-51
2023/07/23 10:31:33;;;;;;;3.67;3.20;;;32.80;21.70;;;;;;5072178;28;20455;-54
2023/07/23 10:33:59;;;;;;;7.77;2.50;;;32.90;19.60;;;;;;5072700;28;20401;-52
2023/07/23 10:36:26;;;;;;;5.83;2.73;;;32.90;19.50;;;;;;5072693;28;20413;-52
2023/07/23 10:39:15;;;;;;;3.23;2.50;;;32.90;19.70;;;;;;5072452;28;20915;-54
2023/07/23 10:41:55;;;;;;;2.60;2.37;;;33.00;19.10;;;;;;5071890;28;20466;-54
2023/07/23 10:44:28;;;;;;;4.87;2.10;;;32.90;17.80;;;;;;5072469;28;20966;-51
2023/07/23 10:46:56;;;;;;;3.70;2.57;;;32.80;19.10;;;;;;5072587;28;20402;-54
2023/07/23 10:49:27;;;;;;;9.30;3.13;;;32.70;19.20;;;;;;5072098;28;21181;-52
2023/07/23 10:51:53;;;;;;;5.80;3.10;;;32.70;19.20;;;;;;5072216;28;21004;-52
2023/07/23 10:54:20;;;;;;;5.63;3.70;;;32.50;21.20;;;;;;5072638;28;20418;-54
2023/07/23 10:56:49;;;;;;;5.90;3.50;;;32.40;19.90;;;;;;5072347;28;20463;-52
2023/07/23 10:59:19;;;;;;;4.47;4.07;;;32.40;20.10;;;;;;5072005;28;20413;-52
2023/07/23 11:01:46;;;;;;;3.00;2.67;;;32.40;20.60;;;;;;5072341;28;20430;-52
2023/07/23 11:04:16;;;;;;;4.10;2.80;;;32.40;21.00;;;;;;5072305;28;20817;-54
2023/07/23 11:07:00;;;;;;;2.93;2.63;;;32.50;19.80;;;;;;5072506;28;20493;-52
2023/07/23 11:09:28;;;;;;;4.80;3.20;;;32.50;21.40;;;;;;5072299;28;20395;-52
2023/07/23 11:11:55;;;;;;;5.23;3.60;;;32.50;20.30;;;;;;5071848;28;20847;-54
2023/07/23 11:14:23;;;;;;;3.70;3.07;;;32.60;21.50;;;;;;5072160;28;20981;-54
2023/07/23 11:16:51;;;;;;;3.80;3.07;;;32.60;21.30;;;;;;5071982;28;20413;-51
2023/07/23 11:19:19;;;;;;;3.73;3.00;;;32.70;20.20;;;;;;5071642;28;20508;-52
2023/07/23 11:21:56;;;;;;;3.10;2.70;;;32.60;19.30;;;;;;5072010;28;20422;-51
2023/07/23 11:24:24;;;;;;;3.40;2.83;;;32.70;20.40;;;;;;5072223;28;20449;-54
2023/07/23 11:26:52;;;;;;;5.43;3.77;;;32.70;19.90;;;;;;5072245;28;20414;-52
2023/07/23 11:29:18;;;;;;;3.60;3.20;;;32.70;18.90;;;;;;5071839;28;20406;-52
2023/07/23 11:31:45;;;;;;;3.60;3.20;;;32.60;19.60;;;;;;5071804;28;20997;-54
2023/07/23 11:34:12;;;;;;;3.90;3.30;;;32.60;19.70;;;;;;5072131;28;20514;-52
2023/07/23 11:36:38;;;;;;;4.93;3.50;;;32.60;19.40;;;;;;5071950;28;20479;-54
2023/07/23 11:39:05;;;;;;;4.63;3.77;;;32.60;19.30;;;;;;5071969;28;20411;-55
2023/07/23 11:41:34;;;;;;;6.50;3.50;;;32.60;20.30;;;;;;5073526;28;20454;-52
2023/07/23 11:44:03;;;;;;;4.70;3.50;;;32.60;19.20;;;;;;5075901;28;20399;-54
2023/07/23 11:46:41;;;;;;;5.57;3.23;;;32.60;20.40;;;;;;5075834;28;20414;-54
2023/07/23 11:49:09;;;;;;;6.00;3.00;;;32.60;20.00;;;;;;5075623;28;20941;-52
2023/07/23 11:51:37;;;;;;;4.57;3.70;;;32.60;19.60;;;;;;5075411;28;20458;-52
2023/07/23 11:54:11;;;;;;;4.10;3.70;;;32.50;19.20;;;;;;5074364;28;20407;-54
2023/07/23 11:56:47;;;;;;;4.50;3.37;;;32.50;19.70;;;;;;5075920;28;20466;-52
2023/07/23 11:59:16;;;;;;;4.13;3.43;;;32.50;20.00;;;;;;5075541;28;20433;-53
2023/07/23 12:01:42;;;;;;;4.70;3.77;;;32.40;21.10;;;;;;5075581;28;20431;-54
2023/07/23 12:04:09;;;;;;;7.70;4.00;;;32.50;20.20;;;;;;5075350;28;20509;-51
2023/07/23 12:06:36;;;;;;;4.23;3.67;;;32.40;21.80;;;;;;5075474;28;20414;-54
2023/07/23 12:09:10;;;;;;;4.50;2.73;;;32.30;20.30;;;;;;5075319;28;20464;-52
2023/07/23 12:11:42;;;;;;;5.23;4.07;;;32.30;20.00;;;;;;5075190;28;20985;-53
2023/07/23 12:14:08;;;;;;;3.70;3.30;;;32.20;21.70;;;;;;5075280;28;20434;-51
2023/07/23 12:16:38;;;;;;;4.00;3.40;;;32.10;20.80;;;;;;5075299;28;20433;-52
2023/07/23 12:19:18;;;;;;;5.77;4.30;;;32.10;20.80;;;;;;5074991;28;20445;-51
2023/07/23 12:21:46;;;;;;;5.00;3.70;;;32.10;20.00;;;;;;5075077;28;20513;-54
2023/07/23 12:24:13;;;;;;;6.47;4.30;;;32.00;20.30;;;;;;5075193;28;20407;-54
2023/07/23 12:26:38;;;;;;;6.40;4.20;;;32.00;19.80;;;;;;5075057;28;20410;-52
2023/07/23 12:29:05;;;;;;;8.40;4.30;;;31.90;19.20;;;;;;5074867;28;20493;-52
2023/07/23 12:31:31;;;;;;;6.37;4.00;;;31.90;19.40;;;;;;5075034;28;20216;-54
2023/07/23 12:33:57;;;;;;;6.03;4.23;;;31.80;18.80;;;;;;5074871;28;20424;-54
2023/07/23 12:36:22;;;;;;;8.63;4.10;;;31.80;19.10;;;;;;5074887;28;20169;-51
2023/07/23 12:38:48;;;;;;;4.93;3.87;;;31.80;18.70;;;;;;5074942;28;20641;-51
2023/07/23 12:41:14;;;;;;;3.80;3.33;;;31.80;19.40;;;;;;5074579;28;20525;-54
2023/07/23 12:43:40;;;;;;;9.80;4.10;;;31.80;19.30;;;;;;5075302;28;20191;-53
2023/07/23 12:46:06;;;;;;;6.97;4.00;;;31.70;19.20;;;;;;5074667;28;20241;-51